createdAt,value
2023-04-25T00:01:38.726Z,99205.16
2023-04-25T00:04:07.127Z,99224.28
2023-04-25T00:06:37.183Z,99219.91
2023-04-25T00:09:10.077Z,99217.22
2023-04-25T00:11:39.249Z,99212.88
2023-04-25T00:14:08.805Z,99205.97
2023-04-25T00:16:36.089Z,99213.00
2023-04-25T00:19:04.261Z,99206.06
2023-04-25T00:21:32.526Z,99212.91
2023-04-25T00:23:59.234Z,99194.72
2023-04-25T00:26:28.794Z,99210.31
2023-04-25T00:28:57.817Z,99199.91
2023-04-25T00:31:24.460Z,99199.00
2023-04-25T00:33:54.126Z,99195.47
2023-04-25T00:36:20.860Z,99196.38
2023-04-25T00:38:47.502Z,99194.69
2023-04-25T00:41:14.070Z,99181.63
2023-04-25T00:43:44.118Z,99184.97
2023-04-25T00:46:20.408Z,99178.13
2023-04-25T00:48:47.048Z,99183.34
2023-04-25T00:51:20.562Z,99172.91
2023-04-25T00:53:47.554Z,99173.78
2023-04-25T00:56:14.182Z,99177.22
2023-04-25T00:58:43.723Z,99168.50
2023-04-25T01:01:11.097Z,99171.22
2023-04-25T01:03:41.837Z,99165.28
2023-04-25T01:06:14.130Z,99155.75
2023-04-25T01:08:46.062Z,99146.19
2023-04-25T01:11:12.718Z,99153.94
2023-04-25T01:13:42.111Z,99155.72
2023-04-25T01:16:11.169Z,99141.88
2023-04-25T01:18:39.082Z,99143.44
2023-04-25T01:21:12.477Z,99144.22
2023-04-25T01:23:39.797Z,99146.69
2023-04-25T01:26:07.422Z,99148.47
2023-04-25T01:28:37.145Z,99147.56
2023-04-25T01:31:04.230Z,99141.47
2023-04-25T01:33:30.938Z,99151.91
2023-04-25T01:36:00.363Z,99146.69
2023-04-25T01:38:26.954Z,99134.47
2023-04-25T01:40:54.592Z,99158.75
2023-04-25T01:43:27.883Z,99132.78
2023-04-25T01:45:57.299Z,99137.13
2023-04-25T01:48:24.224Z,99129.41
2023-04-25T01:50:53.304Z,99145.88
2023-04-25T01:53:20.339Z,99147.69
2023-04-25T01:55:47.623Z,99137.19
2023-04-25T01:58:20.145Z,99137.97
2023-04-25T02:01:05.715Z,99137.03
2023-04-25T02:03:40.683Z,99143.00
2023-04-25T02:06:13.071Z,99149.94
2023-04-25T02:08:43.645Z,99137.88
2023-04-25T02:11:12.333Z,99135.34
2023-04-25T02:13:45.343Z,99137.19
2023-04-25T02:16:23.298Z,99129.31
2023-04-25T02:18:50.544Z,99145.00
2023-04-25T02:21:20.037Z,99142.47
2023-04-25T02:23:50.142Z,99143.44
2023-04-25T02:26:19.479Z,99146.00
2023-04-25T02:28:48.795Z,99139.00
2023-04-25T02:31:17.900Z,99155.50
2023-04-25T02:33:45.471Z,99148.56
2023-04-25T02:36:12.153Z,99146.78
2023-04-25T02:38:44.156Z,99140.78
2023-04-25T02:41:11.053Z,99139.09
2023-04-25T02:43:37.996Z,99133.00
2023-04-25T02:46:06.956Z,99133.91
2023-04-25T02:48:36.524Z,99140.94
2023-04-25T02:51:03.229Z,99137.38
2023-04-25T02:53:34.668Z,99139.06
2023-04-25T02:56:01.536Z,99137.22
2023-04-25T02:58:28.565Z,99131.13
2023-04-25T03:00:55.911Z,99143.94
2023-04-25T03:03:23.131Z,99135.34
2023-04-25T03:05:51.985Z,99142.25
2023-04-25T03:08:23.899Z,99136.97
2023-04-25T03:10:52.401Z,99125.75
2023-04-25T03:13:19.356Z,99133.66
2023-04-25T03:15:48.373Z,99140.53
2023-04-25T03:18:15.156Z,99131.84
2023-04-25T03:20:44.489Z,99135.25
2023-04-25T03:23:13.452Z,99123.28
2023-04-25T03:25:44.990Z,99121.50
2023-04-25T03:28:14.232Z,99129.31
2023-04-25T03:30:40.905Z,99131.91
2023-04-25T03:33:07.610Z,99131.06
2023-04-25T03:35:34.501Z,99133.69
2023-04-25T03:38:03.755Z,99134.53
2023-04-25T03:40:35.152Z,99136.16
2023-04-25T03:43:22.391Z,99137.09
2023-04-25T03:45:55.556Z,99134.44
2023-04-25T03:48:25.618Z,99137.06
2023-04-25T03:50:54.333Z,99140.41
2023-04-25T03:53:21.123Z,99142.91
2023-04-25T03:56:10.680Z,99141.88
2023-04-25T03:58:40.555Z,99145.19
2023-04-25T04:01:08.877Z,99145.94
2023-04-25T04:03:38.342Z,99149.38
2023-04-25T04:06:06.686Z,99147.56
2023-04-25T04:08:36.703Z,99153.59
2023-04-25T04:11:03.738Z,99153.63
2023-04-25T04:13:30.921Z,99152.84
2023-04-25T04:16:03.051Z,99138.13
2023-04-25T04:18:29.956Z,99149.22
2023-04-25T04:20:59.244Z,99136.16
2023-04-25T04:23:30.885Z,99153.38
2023-04-25T04:25:58.574Z,99160.34
2023-04-25T04:28:47.297Z,99161.94
2023-04-25T04:31:43.056Z,99161.69
2023-04-25T04:34:14.200Z,99164.38
2023-04-25T04:36:42.391Z,99157.59
2023-04-25T04:39:10.277Z,99158.59
2023-04-25T04:42:02.802Z,99156.00
2023-04-25T04:44:46.688Z,99157.69
2023-04-25T04:47:37.963Z,99158.56
2023-04-25T04:50:23.828Z,99168.75
2023-04-25T04:53:13.699Z,99166.00
2023-04-25T04:55:55.519Z,99170.34
2023-04-25T04:58:57.998Z,99169.47
2023-04-25T05:01:41.436Z,99167.78
2023-04-25T05:04:42.688Z,99160.53
2023-04-25T05:07:38.039Z,99176.00
2023-04-25T05:10:26.965Z,99181.16
2023-04-25T05:13:04.631Z,99170.59
2023-04-25T05:15:34.725Z,99166.38
2023-04-25T05:18:07.245Z,99183.72
2023-04-25T05:20:55.264Z,99181.97
2023-04-25T05:23:42.189Z,99186.44
2023-04-25T05:26:31.834Z,99167.50
2023-04-25T05:29:12.350Z,99179.44
2023-04-25T05:31:49.654Z,99181.06
2023-04-25T05:34:17.768Z,99185.38
2023-04-25T05:36:54.006Z,99188.03
2023-04-25T05:39:20.988Z,99178.59
2023-04-25T05:42:08.629Z,99176.84
2023-04-25T05:44:58.897Z,99191.53
2023-04-25T05:47:42.944Z,99187.16
2023-04-25T05:50:32.439Z,99190.13
2023-04-25T05:53:21.441Z,99190.34
2023-04-25T05:55:54.171Z,99199.34
2023-04-25T05:58:23.092Z,99199.94
2023-04-25T06:00:52.702Z,99198.16
2023-04-25T06:03:22.362Z,99191.91
2023-04-25T06:05:51.074Z,99196.09
2023-04-25T06:08:17.767Z,99184.59
2023-04-25T06:10:44.433Z,99194.13
2023-04-25T06:13:11.155Z,99201.25
2023-04-25T06:15:40.545Z,99200.41
2023-04-25T06:18:10.374Z,99196.84
2023-04-25T06:20:36.974Z,99203.03
2023-04-25T06:23:03.659Z,99208.34
2023-04-25T06:25:40.018Z,99191.97
2023-04-25T06:28:06.912Z,99208.00
2023-04-25T06:30:33.641Z,99199.50
2023-04-25T06:33:06.009Z,99220.34
2023-04-25T06:35:33.310Z,99212.75
2023-04-25T06:38:04.923Z,99210.00
2023-04-25T06:40:33.748Z,99206.78
2023-04-25T06:43:00.412Z,99199.34
2023-04-25T06:45:48.493Z,99217.50
2023-04-25T06:48:18.296Z,99209.84
2023-04-25T06:50:47.905Z,99214.00
2023-04-25T06:53:15.087Z,99206.44
2023-04-25T06:55:46.706Z,99217.13
2023-04-25T06:58:17.816Z,99217.19
2023-04-25T07:00:57.367Z,99209.56
2023-04-25T07:03:29.143Z,99202.97
2023-04-25T07:06:06.010Z,99208.09
2023-04-25T07:08:32.751Z,99212.50
2023-04-25T07:11:00.512Z,99217.13
2023-04-25T07:13:27.372Z,99211.31
2023-04-25T07:15:56.068Z,99216.66
2023-04-25T07:18:26.675Z,99211.81
2023-04-25T07:20:58.312Z,99207.84
2023-04-25T07:23:24.991Z,99217.59
2023-04-25T07:25:52.078Z,99201.34
2023-04-25T07:28:21.906Z,99211.03
2023-04-25T07:30:48.647Z,99213.94
2023-04-25T07:33:15.712Z,99211.41
2023-04-25T07:35:42.343Z,99208.84
2023-04-25T07:38:11.399Z,99215.94
2023-04-25T07:40:40.950Z,99216.78
2023-04-25T07:43:09.330Z,99212.50
2023-04-25T07:45:49.269Z,99217.72
2023-04-25T07:48:19.601Z,99221.34
2023-04-25T07:50:50.227Z,99225.91
2023-04-25T07:53:18.687Z,99213.19
2023-04-25T07:55:54.178Z,99210.66
2023-04-25T07:58:25.348Z,99215.03
2023-04-25T08:00:58.612Z,99219.34
2023-04-25T08:03:44.243Z,99215.94
2023-04-25T08:06:19.047Z,99213.34
2023-04-25T08:08:57.669Z,99214.34
2023-04-25T08:11:31.700Z,99209.19
2023-04-25T08:13:58.391Z,99221.41
2023-04-25T08:16:26.318Z,99219.63
2023-04-25T08:18:53.478Z,99214.47
2023-04-25T08:21:23.382Z,99224.09
2023-04-25T08:23:53.545Z,99222.28
2023-04-25T08:26:32.288Z,99220.53
2023-04-25T08:29:02.188Z,99220.53
2023-04-25T08:31:28.928Z,99222.34
2023-04-25T08:33:59.235Z,99218.78
2023-04-25T08:36:39.294Z,99220.53
2023-04-25T08:39:17.954Z,99230.16
2023-04-25T08:41:59.087Z,99231.13
2023-04-25T08:44:25.744Z,99242.47
2023-04-25T08:46:52.556Z,99231.97
2023-04-25T08:49:27.613Z,99243.31
2023-04-25T08:51:54.248Z,99238.91
2023-04-25T08:54:35.213Z,99245.09
2023-04-25T08:57:03.357Z,99244.19
2023-04-25T08:59:30.141Z,99255.50
2023-04-25T09:01:59.578Z,99238.06
2023-04-25T09:04:33.605Z,99229.47
2023-04-25T09:07:00.589Z,99245.94
2023-04-25T09:09:28.236Z,99244.16
2023-04-25T09:11:55.676Z,99250.28
2023-04-25T09:14:27.054Z,99244.19
2023-04-25T09:17:06.316Z,99248.47
2023-04-25T09:19:47.229Z,99252.88
2023-04-25T09:22:28.621Z,99239.91
2023-04-25T09:24:55.708Z,99249.53
2023-04-25T09:27:28.640Z,99240.84
2023-04-25T09:30:13.165Z,99236.56
2023-04-25T09:32:59.624Z,99234.81
2023-04-25T09:35:27.493Z,99237.41
2023-04-25T09:37:55.464Z,99243.50
2023-04-25T09:40:41.595Z,99236.56
2023-04-25T09:43:22.510Z,99235.69
2023-04-25T09:45:52.715Z,99223.44
2023-04-25T09:48:24.605Z,99229.41
2023-04-25T09:51:07.014Z,99209.19
2023-04-25T09:53:37.332Z,99232.69
2023-04-25T09:56:14.376Z,99224.16
2023-04-25T09:58:42.104Z,99235.56
2023-04-25T10:01:13.824Z,99233.84
2023-04-25T10:03:54.027Z,99228.50
2023-04-25T10:06:35.841Z,99229.44
2023-04-25T10:09:04.860Z,99219.03
2023-04-25T10:11:33.934Z,99238.25
2023-04-25T10:14:01.652Z,99237.41
2023-04-25T10:16:28.485Z,99238.22
2023-04-25T10:18:55.112Z,99217.38
2023-04-25T10:21:24.774Z,99232.19
2023-04-25T10:23:51.639Z,99226.06
2023-04-25T10:26:19.014Z,99223.38
2023-04-25T10:28:58.863Z,99234.66
2023-04-25T10:31:31.030Z,99231.19
2023-04-25T10:33:57.981Z,99227.53
2023-04-25T10:36:25.442Z,99221.25
2023-04-25T10:38:52.364Z,99215.94
2023-04-25T10:41:22.562Z,99217.59
2023-04-25T10:43:50.318Z,99224.63
2023-04-25T10:46:20.421Z,99227.13
2023-04-25T10:48:51.432Z,99229.91
2023-04-25T10:51:22.524Z,99237.72
2023-04-25T10:53:59.334Z,99221.94
2023-04-25T10:56:26.646Z,99224.25
2023-04-25T10:58:54.089Z,99237.19
2023-04-25T11:01:21.466Z,99246.75
2023-04-25T11:03:51.577Z,99242.53
2023-04-25T11:06:20.918Z,99248.78
2023-04-25T11:08:51.762Z,99245.13
2023-04-25T11:11:19.071Z,99244.88
2023-04-25T11:13:51.399Z,99246.25
2023-04-25T11:16:27.591Z,99252.81
2023-04-25T11:18:57.922Z,99245.84
2023-04-25T11:21:25.296Z,99243.88
2023-04-25T11:23:54.731Z,99250.06
2023-04-25T11:26:22.062Z,99258.97
2023-04-25T11:28:49.114Z,99242.53
2023-04-25T11:31:15.952Z,99254.84
2023-04-25T11:33:43.603Z,99252.66
2023-04-25T11:36:10.486Z,99249.41
2023-04-25T11:38:37.176Z,99256.75
2023-04-25T11:41:03.850Z,99254.66
2023-04-25T11:43:30.976Z,99263.16
2023-04-25T11:45:57.744Z,99258.84
2023-04-25T11:48:26.037Z,99257.44
2023-04-25T11:50:56.469Z,99259.22
2023-04-25T11:53:25.476Z,99263.88
2023-04-25T11:55:57.172Z,99266.09
2023-04-25T11:58:23.935Z,99279.38
2023-04-25T12:00:51.119Z,99280.16
2023-04-25T12:03:18.867Z,99281.81
2023-04-25T12:05:46.607Z,99285.41
2023-04-25T12:08:16.942Z,99293.31
2023-04-25T12:10:46.744Z,99296.25
2023-04-25T12:13:20.886Z,99299.47
2023-04-25T12:15:47.761Z,99299.63
2023-04-25T12:18:14.951Z,99292.63
2023-04-25T12:21:09.273Z,99300.72
2023-04-25T12:23:35.912Z,99290.25
2023-04-25T12:26:04.019Z,99290.81
2023-04-25T12:28:32.896Z,99287.47
2023-04-25T12:31:05.622Z,99286.72
2023-04-25T12:33:33.629Z,99280.25
2023-04-25T12:36:01.296Z,99275.03
2023-04-25T12:38:28.896Z,99269.66
2023-04-25T12:40:55.584Z,99271.31
2023-04-25T12:43:23.341Z,99269.19
2023-04-25T12:45:55.639Z,99251.44
2023-04-25T12:48:22.504Z,99256.91
2023-04-25T12:50:52.810Z,99262.00
2023-04-25T12:53:20.188Z,99247.47
2023-04-25T12:55:47.835Z,99249.16
2023-04-25T12:58:18.961Z,99239.28
2023-04-25T13:00:45.925Z,99242.22
2023-04-25T13:03:13.826Z,99244.56
2023-04-25T13:05:41.461Z,99237.00
2023-04-25T13:08:08.725Z,99232.94
2023-04-25T13:10:39.644Z,99226.97
2023-04-25T13:13:06.278Z,99235.06
2023-04-25T13:15:33.279Z,99228.03
2023-04-25T13:18:02.446Z,99224.91
2023-04-25T13:20:29.154Z,99210.94
2023-04-25T13:22:56.371Z,99228.66
2023-04-25T13:25:25.970Z,99222.78
2023-04-25T13:27:52.962Z,99210.25
2023-04-25T13:30:19.792Z,99228.47
2023-04-25T13:32:49.240Z,99222.56
2023-04-25T13:35:16.646Z,99218.91
2023-04-25T13:37:43.695Z,99227.31
2023-04-25T13:40:13.320Z,99222.50
2023-04-25T13:42:40.385Z,99220.06
2023-04-25T13:45:12.700Z,99209.19
2023-04-25T13:47:39.363Z,99206.06
2023-04-25T13:50:09.094Z,99210.63
2023-04-25T13:52:35.981Z,99214.81
2023-04-25T13:55:04.847Z,99209.25
2023-04-25T13:57:31.849Z,99217.47
2023-04-25T13:59:58.784Z,99211.94
2023-04-25T14:02:32.782Z,99223.06
2023-04-25T14:04:59.588Z,99220.03
2023-04-25T14:07:27.506Z,99216.88
2023-04-25T14:09:58.838Z,99222.88
2023-04-25T14:12:28.047Z,99223.56
2023-04-25T14:14:57.572Z,99223.22
2023-04-25T14:17:24.299Z,99228.56
2023-04-25T14:19:51.248Z,99232.66
2023-04-25T14:22:18.191Z,99224.25
2023-04-25T14:24:44.983Z,99222.00
2023-04-25T14:27:14.473Z,99228.84
2023-04-25T14:29:41.359Z,99220.50
2023-04-25T14:32:08.248Z,99233.03
2023-04-25T14:34:35.336Z,99225.34
2023-04-25T14:37:02.270Z,99227.91
2023-04-25T14:39:31.846Z,99212.47
2023-04-25T14:41:59.319Z,99216.88
2023-04-25T14:44:26.005Z,99217.66
2023-04-25T14:46:53.255Z,99216.63
2023-04-25T14:49:20.320Z,99207.97
2023-04-25T14:51:47.121Z,99207.59
2023-04-25T14:54:16.802Z,99212.56
2023-04-25T14:56:46.062Z,99218.81
2023-04-25T14:59:14.962Z,99207.63
2023-04-25T15:01:42.074Z,99214.53
2023-04-25T15:04:09.119Z,99214.78
2023-04-25T15:06:36.173Z,99216.84
2023-04-25T15:09:02.788Z,99218.06
2023-04-25T15:11:29.786Z,99216.28
2023-04-25T15:13:56.517Z,99211.84
2023-04-25T15:16:26.290Z,99228.44
2023-04-25T15:18:53.036Z,99223.88
2023-04-25T15:21:19.876Z,99222.03
2023-04-25T15:23:49.003Z,99217.31
2023-04-25T15:26:16.670Z,99230.75
2023-04-25T15:28:44.001Z,99224.13
2023-04-25T15:31:13.080Z,99230.56
2023-04-25T15:33:42.283Z,99239.56
2023-04-25T15:36:09.044Z,99241.88
2023-04-25T15:38:38.545Z,99239.91
2023-04-25T15:41:06.730Z,99240.97
2023-04-25T15:43:38.798Z,99238.66
2023-04-25T15:46:08.429Z,99248.38
2023-04-25T15:48:40.610Z,99249.38
2023-04-25T15:51:09.881Z,99258.91
2023-04-25T15:53:38.936Z,99264.75
2023-04-25T15:56:06.207Z,99264.47
2023-04-25T15:58:32.941Z,99280.41
2023-04-25T16:00:59.640Z,99266.31
2023-04-25T16:03:26.477Z,99268.88
2023-04-25T16:05:53.771Z,99270.66
2023-04-25T16:08:20.813Z,99270.66
2023-04-25T16:10:47.618Z,99283.19
2023-04-25T16:13:14.347Z,99284.28
2023-04-25T16:15:43.539Z,99286.94
2023-04-25T16:18:18.601Z,99280.78
2023-04-25T16:20:47.754Z,99279.91
2023-04-25T16:23:22.060Z,99284.28
2023-04-25T16:25:59.314Z,99289.44
2023-04-25T16:28:31.504Z,99283.22
2023-04-25T16:31:17.094Z,99297.22
2023-04-25T16:33:46.776Z,99283.34
2023-04-25T16:36:13.511Z,99293.00
2023-04-25T16:38:40.286Z,99284.38
2023-04-25T16:41:07.948Z,99292.22
2023-04-25T16:43:34.667Z,99295.72
2023-04-25T16:46:04.079Z,99292.22
2023-04-25T16:48:33.292Z,99300.91
2023-04-25T16:50:59.904Z,99300.03
2023-04-25T16:53:28.823Z,99291.38
2023-04-25T16:55:59.886Z,99290.50
2023-04-25T16:58:29.140Z,99289.63
2023-04-25T17:00:56.140Z,99298.31
2023-04-25T17:03:23.678Z,99293.06
2023-04-25T17:05:50.598Z,99297.44
2023-04-25T17:08:19.493Z,99299.16
2023-04-25T17:10:46.602Z,99299.19
2023-04-25T17:13:16.180Z,99300.94
2023-04-25T17:15:43.569Z,99306.16
2023-04-25T17:18:12.771Z,99318.31
2023-04-25T17:20:41.962Z,99310.53
2023-04-25T17:23:09.004Z,99316.63
2023-04-25T17:25:36.167Z,99324.44
2023-04-25T17:28:05.803Z,99331.41
2023-04-25T17:30:33.024Z,99320.97
2023-04-25T17:32:59.831Z,99325.28
2023-04-25T17:35:52.464Z,99325.31
2023-04-25T17:38:23.984Z,99334.88
2023-04-25T17:40:56.083Z,99342.69
2023-04-25T17:43:33.113Z,99343.56
2023-04-25T17:46:02.270Z,99345.31
2023-04-25T17:48:29.159Z,99348.78
2023-04-25T17:50:58.574Z,99353.97
2023-04-25T17:53:25.504Z,99348.75
2023-04-25T17:55:52.172Z,99355.63
2023-04-25T17:58:23.363Z,99353.72
2023-04-25T18:00:50.536Z,99347.59
2023-04-25T18:03:18.364Z,99353.53
2023-04-25T18:05:47.551Z,99363.84
2023-04-25T18:08:14.307Z,99372.38
2023-04-25T18:10:41.459Z,99377.56
2023-04-25T18:13:09.590Z,99377.53
2023-04-25T18:15:41.007Z,99381.84
2023-04-25T18:18:19.583Z,99378.31
2023-04-25T18:20:48.796Z,99379.06
2023-04-25T18:23:15.616Z,99382.50
2023-04-25T18:25:42.385Z,99385.97
2023-04-25T18:28:11.820Z,99382.38
2023-04-25T18:30:43.144Z,99399.56
2023-04-25T18:33:12.228Z,99407.25
2023-04-25T18:35:45.023Z,99395.09
2023-04-25T18:38:16.975Z,99402.06
2023-04-25T18:40:59.805Z,99407.94
2023-04-25T18:43:32.583Z,99401.88
2023-04-25T18:46:01.250Z,99413.03
2023-04-25T18:48:28.719Z,99419.06
2023-04-25T18:50:57.892Z,99422.41
2023-04-25T18:53:27.038Z,99423.16
2023-04-25T18:55:53.681Z,99421.38
2023-04-25T18:58:22.773Z,99420.59
2023-04-25T19:00:51.907Z,99424.97
2023-04-25T19:03:22.395Z,99425.63
2023-04-25T19:05:51.738Z,99432.63
2023-04-25T19:08:20.902Z,99437.06
2023-04-25T19:10:50.578Z,99431.78
2023-04-25T19:13:17.547Z,99439.66
2023-04-25T19:15:44.299Z,99430.09
2023-04-25T19:18:15.852Z,99434.34
2023-04-25T19:20:47.396Z,99435.25
2023-04-25T19:23:14.442Z,99426.63
2023-04-25T19:25:43.616Z,99424.97
2023-04-25T19:28:13.912Z,99431.78
2023-04-25T19:30:43.073Z,99430.91
2023-04-25T19:33:15.301Z,99432.69
2023-04-25T19:35:44.773Z,99437.88
2023-04-25T19:38:17.032Z,99436.19
2023-04-25T19:40:43.809Z,99445.00
2023-04-25T19:43:13.968Z,99446.84
2023-04-25T19:45:45.900Z,99438.94
2023-04-25T19:48:14.097Z,99439.63
2023-04-25T19:50:43.354Z,99441.25
2023-04-25T19:53:12.386Z,99429.00
2023-04-25T19:55:41.354Z,99446.28
2023-04-25T19:58:11.333Z,99455.56
2023-04-25T20:00:40.489Z,99445.97
2023-04-25T20:03:07.201Z,99441.72
2023-04-25T20:05:36.426Z,99438.22
2023-04-25T20:08:03.650Z,99443.47
2023-04-25T20:10:30.299Z,99440.94
2023-04-25T20:12:59.588Z,99428.59
2023-04-25T20:15:26.207Z,99431.88
2023-04-25T20:17:55.381Z,99429.34
2023-04-25T20:20:24.692Z,99434.47
2023-04-25T20:22:51.638Z,99438.81
2023-04-25T20:25:21.460Z,99443.94
2023-04-25T20:27:48.540Z,99432.63
2023-04-25T20:30:15.543Z,99449.03
2023-04-25T20:32:44.385Z,99453.34
2023-04-25T20:35:11.162Z,99448.97
2023-04-25T20:37:38.036Z,99459.19
2023-04-25T20:40:06.150Z,99464.44
2023-04-25T20:42:32.938Z,99470.50
2023-04-25T20:44:59.650Z,99465.47
2023-04-25T20:47:29.783Z,99469.06
2023-04-25T20:49:59.981Z,99471.75
2023-04-25T20:52:26.673Z,99471.81
2023-04-25T20:54:55.750Z,99476.06
2023-04-25T20:57:24.753Z,99469.97
2023-04-25T20:59:51.645Z,99468.09
2023-04-25T21:02:18.974Z,99472.34
2023-04-25T21:04:45.756Z,99480.88
2023-04-25T21:07:17.850Z,99474.81
2023-04-25T21:09:48.074Z,99491.25
2023-04-25T21:12:17.563Z,99488.63
2023-04-25T21:14:44.238Z,99490.16
2023-04-25T21:17:15.579Z,99486.84
2023-04-25T21:19:42.298Z,99490.91
2023-04-25T21:22:11.996Z,99484.56
2023-04-25T21:24:38.613Z,99492.19
2023-04-25T21:27:07.617Z,99487.69
2023-04-25T21:29:37.342Z,99496.88
2023-04-25T21:32:04.500Z,99495.72
2023-04-25T21:34:31.275Z,99492.88
2023-04-25T21:36:58.139Z,99500.06
2023-04-25T21:39:25.256Z,99497.41
2023-04-25T21:41:51.894Z,99498.09
2023-04-25T21:44:20.929Z,99491.00
2023-04-25T21:46:47.997Z,99494.41
2023-04-25T21:49:14.712Z,99499.69
2023-04-25T21:51:43.842Z,99496.25
2023-04-25T21:54:10.785Z,99506.59
2023-04-25T21:56:37.465Z,99506.72
2023-04-25T21:59:04.116Z,99513.81
2023-04-25T22:01:30.747Z,99507.63
2023-04-25T22:03:57.604Z,99516.22
2023-04-25T22:06:24.523Z,99516.03
2023-04-25T22:08:54.213Z,99516.13
2023-04-25T22:11:24.414Z,99516.97
2023-04-25T22:13:51.494Z,99521.88
2023-04-25T22:16:20.705Z,99522.97
2023-04-25T22:18:52.201Z,99524.84
2023-04-25T22:21:19.091Z,99523.41
2023-04-25T22:23:45.700Z,99526.88
2023-04-25T22:26:14.473Z,99535.50
2023-04-25T22:28:41.208Z,99533.63
2023-04-25T22:31:10.649Z,99542.78
2023-04-25T22:33:37.449Z,99527.97
2023-04-25T22:36:04.190Z,99532.25
2023-04-25T22:38:33.250Z,99541.25
2023-04-25T22:40:59.789Z,99542.28
2023-04-25T22:43:28.230Z,99544.19
2023-04-25T22:45:58.827Z,99549.41
2023-04-25T22:48:26.319Z,99553.78
2023-04-25T22:51:01.387Z,99557.28
2023-04-25T22:53:28.173Z,99553.84
2023-04-25T22:55:57.471Z,99555.38
2023-04-25T22:58:24.674Z,99558.03
2023-04-25T23:00:52.124Z,99561.53
2023-04-25T23:03:21.998Z,99560.00
2023-04-25T23:05:51.552Z,99557.59
2023-04-25T23:08:18.715Z,99562.97
2023-04-25T23:10:45.345Z,99568.97
2023-04-25T23:13:11.963Z,99568.09
2023-04-25T23:15:38.722Z,99565.38
2023-04-25T23:18:05.397Z,99569.75
2023-04-25T23:20:35.099Z,99573.94
2023-04-25T23:23:04.060Z,99575.38
2023-04-25T23:25:31.211Z,99565.94
2023-04-25T23:27:58.048Z,99571.00
2023-04-25T23:30:27.566Z,99576.97
2023-04-25T23:32:54.610Z,99577.63
2023-04-25T23:35:21.824Z,99581.22
2023-04-25T23:37:50.900Z,99592.41
2023-04-25T23:40:20.048Z,99584.75
2023-04-25T23:42:49.493Z,99587.34
2023-04-25T23:45:18.838Z,99581.31
2023-04-25T23:47:50.927Z,99580.56
2023-04-25T23:50:17.654Z,99579.00
2023-04-25T23:52:44.691Z,99575.59
2023-04-25T23:55:13.774Z,99581.78
2023-04-25T23:57:44.524Z,99586.84
